Terminal Aerodrome Forecast
Issued by NWS

Home | Current Version | Previous Version | Text Only | Print | Product List | Glossary On
Versions: 1 2 3 4 5 6 7 8 9 10 11 12 13 14 15 16 17
000
FTUS46 KMTR 261737
TAFSJC
TAF
KSJC 261737Z 2618/2718 12004KT P6SM FEW010 BKN100 OVC150
     FM262100 16006KT P6SM BKN050 OVC100
     FM270300 17005KT P6SM -RA OVC030
     FM270700 26006KT P6SM VCSH BKN030 OVC050
     FM271400 29005KT P6SM BKN025
     FM271700 31008KT P6SM BKN200=

USA.gov is the U.S. government's official web portal to all federal, state and local government web resources and services.